Terminal Aerodrome Forecast
Issued by NWS

Home | Current Version | Previous Version | Text Only | Print | Product List | Glossary On
Versions: 1 2 3 4 5 6 7 8 9 10 11 12 13 14 15 16 17 18 19 20 21 22 23 24 25 26
040
FTUS43 KILX 301745
TAFCMI
TAF
KCMI 301745Z 3018/0118 21015G25KT P6SM -SHRA SCT015 OVC035
      TEMPO 3018/3020 3SM SHRA BR OVC010
     FM302000 16018G28KT 6SM -SHRA BR VCTS SCT015CB BKN025
      TEMPO 3020/3024 2SM TSRA BR OVC015CB
     FM010500 20016G22KT P6SM SHRA BKN035
     FM011400 22020G28KT P6SM BKN020=

USA.gov is the U.S. government's official web portal to all federal, state and local government web resources and services.